Aérodrome :
LOGIN :

S'inscrire | Disclaimer

   EN    FR    IT 

 










Légende :    VFR   VFR Marginal   IFR   IFR Intensif   IFR Très Intensif
Visi : 
Plafond : 
>= 8 km
>= 3000ft
5 à 8 km
1000 à 3000 ft
1500m à 5 km
500 à 1000 ft
800 à 1500m
200 à 500 ft
< 800m
< 200 ft
Symboles :   Orages  Brouillard  Fortes neiges  Fortes précipitations  Vent > 20 kt
SIGMETs :   Divers  Orages  Givrage  Turbulence  Onde Orograph.  Cendres Volcan.






- Altitude de l'aérodrome : 863 ft
- Code IATA : ZAZ


LEZG - Zaragoza Aragon

DERNIER METAR :
  • 031930Z 26003KT 170V310 9999 FEW045 SCT085 18/17 Q1006

METARs EXPIRÉS :
  • 031900Z 26005KT 210V290 9999 FEW045 SCT085 18/16 Q1007
  • 031830Z 30010KT 9999 TS -RA FEW030 SCT065CB BKN085 18/17 Q1008 RETSRA
  • 031800Z 30012KT 6000 TSRA SCT012 BKN065CB OVC085 18/17 Q1008
  • 031730Z 29011KT 260V320 4500 TSRA BR SCT012 BKN065CB 18/17 Q1007
  • 031707Z 27010KT 240V300 4000 TSRA BR FEW012 BKN065CB 18/17 Q1008
  • 031700Z 25008KT 9999 VCTS FEW012 SCT065CB BKN085 18/17 Q1007
  • 031630Z 01003G13KT 8000 TS -RA FEW025 BKN065CB 18/16 Q1006 RETSRA

TAF TAF LEZG
Valide du 03 à 18h jusqu'au 04 à 18h UTC


031700Z 0318/0418 30010KT 9999 FEW050 TX23/0415Z TN14/0406Z
TEMPO 0318/0405 4000 TSRA SCT040CB BKN050
PROB30 0410/0417 4000 TSRA SCT030CB BKN040
BECMG 0410/0412 31015KT
TEMPO 0411/0418 32020G30KT



MET'MAP, la Météo Aéronautique d'un coup d'oeil ! - Copyright ORBIFLY Décembre 2007 - Disclaimer

ORBIFLY MET'MAP TEAM :

Programmation & Développement : Alexandra Zaïnal
Sur une idée originale de : Baudouin d'Aumeries
Assistance à la programmation : Marc-Olivier Méhu
Soutien technique & logistique : Manuel Goepfert

Contact : metmap@orbifly.com




SOURCES & CREDITS :

   NOAA